createdAt,value
2018-06-03T00:00:01.309Z,63.30
2018-06-03T00:02:31.111Z,62.20
2018-06-03T00:05:00.733Z,62.10
2018-06-03T00:07:29.793Z,61.90
2018-06-03T00:09:59.082Z,62.10
2018-06-03T00:12:28.589Z,62.20
2018-06-03T00:14:57.650Z,63.50
2018-06-03T00:17:27.497Z,63.70
2018-06-03T00:19:56.557Z,63.70
2018-06-03T00:22:31.367Z,63.50
2018-06-03T00:25:00.441Z,63.00
2018-06-03T00:27:30.025Z,62.60
2018-06-03T00:29:59.780Z,62.80
2018-06-03T00:32:29.337Z,63.10
2018-06-03T00:34:59.885Z,63.10
2018-06-03T00:37:28.934Z,63.00
2018-06-03T00:42:30.978Z,63.70
2018-06-03T00:45:00.058Z,64.20
2018-06-03T00:47:29.482Z,64.60
2018-06-03T00:49:58.997Z,64.40
2018-06-03T00:52:28.821Z,64.20
2018-06-03T00:54:58.033Z,64.00
2018-06-03T00:57:28.376Z,63.70
2018-06-03T00:59:58.365Z,63.70
2018-06-03T01:02:27.744Z,63.10
2018-06-03T01:04:57.250Z,63.10
2018-06-03T01:07:26.330Z,63.50
2018-06-03T01:09:55.725Z,63.50
2018-06-03T01:12:24.778Z,62.60
2018-06-03T01:14:53.831Z,62.60
2018-06-03T01:17:23.214Z,62.40
2018-06-03T01:19:53.081Z,62.80
2018-06-03T01:22:22.129Z,62.80
2018-06-03T01:24:51.220Z,62.60
2018-06-03T01:27:20.315Z,62.60
2018-06-03T01:29:49.588Z,62.40
2018-06-03T01:32:18.918Z,62.10
2018-06-03T01:34:48.236Z,62.40
2018-06-03T01:37:17.285Z,62.10
2018-06-03T01:39:46.626Z,62.60
2018-06-03T01:42:15.689Z,63.70
2018-06-03T01:44:44.978Z,63.70
2018-06-03T01:47:14.208Z,63.70
2018-06-03T01:49:43.281Z,64.80
2018-06-03T01:52:14.083Z,65.10
2018-06-03T01:54:43.131Z,65.10
2018-06-03T01:57:12.189Z,64.40
2018-06-03T01:59:41.629Z,64.20
2018-06-03T02:02:10.737Z,64.20
2018-06-03T02:04:39.812Z,63.70
2018-06-03T02:07:08.923Z,63.00
2018-06-03T02:09:37.976Z,62.80
2018-06-03T02:12:07.048Z,63.00
2018-06-03T02:14:36.358Z,62.60
2018-06-03T02:17:05.878Z,63.10
2018-06-03T02:19:35.307Z,63.50
2018-06-03T02:22:04.392Z,64.20
2018-06-03T02:24:33.480Z,63.70
2018-06-03T02:27:02.908Z,64.20
2018-06-03T02:29:31.968Z,64.20
2018-06-03T02:32:01.270Z,64.20
2018-06-03T02:34:30.707Z,64.20
2018-06-03T02:37:00.021Z,64.20
2018-06-03T02:39:29.103Z,64.20
2018-06-03T02:41:58.510Z,64.80
2018-06-03T02:44:28.077Z,64.80
2018-06-03T02:46:57.155Z,64.90
2018-06-03T02:49:26.500Z,64.80
2018-06-03T02:51:55.566Z,64.60
2018-06-03T02:54:24.620Z,64.60
2018-06-03T02:56:54.318Z,64.60
2018-06-03T02:59:23.374Z,64.20
2018-06-03T03:01:52.749Z,64.20
2018-06-03T03:04:22.099Z,64.00
2018-06-03T03:06:51.168Z,63.70
2018-06-03T03:09:20.542Z,63.70
2018-06-03T03:11:50.204Z,63.70
2018-06-03T03:14:25.543Z,63.70
2018-06-03T03:16:55.565Z,63.30
2018-06-03T03:19:24.751Z,63.10
2018-06-03T03:21:53.949Z,63.30
2018-06-03T03:24:23.013Z,64.00
2018-06-03T03:26:52.125Z,64.20
2018-06-03T03:29:21.554Z,64.90
2018-06-03T03:31:50.608Z,65.70
2018-06-03T03:34:19.658Z,65.50
2018-06-03T03:36:48.741Z,65.80
2018-06-03T03:39:18.108Z,65.50
2018-06-03T03:41:47.484Z,65.50
2018-06-03T03:44:16.610Z,64.90
2018-06-03T03:46:45.906Z,64.20
2018-06-03T03:49:14.954Z,64.20
2018-06-03T03:51:44.341Z,64.00
2018-06-03T03:54:13.418Z,63.70
2018-06-03T03:56:43.114Z,63.70
2018-06-03T03:59:12.342Z,63.30
2018-06-03T04:01:41.397Z,63.00
2018-06-03T04:04:10.697Z,63.00
2018-06-03T04:06:39.818Z,62.40
2018-06-03T04:09:08.932Z,62.20
2018-06-03T04:11:38.012Z,62.10
2018-06-03T04:14:07.093Z,62.10
2018-06-03T04:16:36.285Z,61.90
2018-06-03T04:19:05.346Z,62.20
2018-06-03T04:21:34.971Z,62.20
2018-06-03T04:24:04.538Z,62.10
2018-06-03T04:26:33.594Z,61.90
2018-06-03T04:29:02.921Z,61.70
2018-06-03T04:31:32.012Z,61.90
2018-06-03T04:34:01.097Z,62.20
2018-06-03T04:36:30.687Z,62.20
2018-06-03T04:39:00.090Z,62.10
2018-06-03T04:41:29.490Z,62.10
2018-06-03T04:43:58.889Z,62.20
2018-06-03T04:46:27.956Z,62.80
2018-06-03T04:48:57.327Z,64.20
2018-06-03T04:51:26.693Z,64.80
2018-06-03T04:53:56.076Z,64.00
2018-06-03T04:56:25.153Z,63.30
2018-06-03T04:58:54.211Z,63.00
2018-06-03T05:01:23.485Z,62.80
2018-06-03T05:03:52.889Z,62.80
2018-06-03T05:06:22.298Z,62.20
2018-06-03T05:08:52.013Z,62.80
2018-06-03T05:11:21.387Z,62.60
2018-06-03T05:13:50.442Z,62.60
2018-06-03T05:16:19.759Z,62.40
2018-06-03T05:18:49.538Z,62.40
2018-06-03T05:21:18.954Z,62.20
2018-06-03T05:23:48.496Z,61.90
2018-06-03T05:26:18.103Z,61.50
2018-06-03T05:28:47.266Z,61.50
2018-06-03T05:31:16.356Z,61.50
2018-06-03T05:33:45.419Z,61.30
2018-06-03T05:36:14.752Z,61.50
2018-06-03T05:38:43.818Z,61.70
2018-06-03T05:41:14.552Z,62.10
2018-06-03T05:43:43.646Z,62.10
2018-06-03T05:46:12.700Z,62.20
2018-06-03T05:48:41.823Z,61.90
2018-06-03T05:51:11.216Z,62.20
2018-06-03T05:53:40.521Z,62.40
2018-06-03T05:56:09.637Z,62.20
2018-06-03T05:58:38.684Z,62.40
2018-06-03T06:01:08.215Z,62.80
2018-06-03T06:03:37.516Z,62.40
2018-06-03T06:06:06.606Z,62.40
2018-06-03T06:08:35.737Z,62.40
2018-06-03T06:11:04.925Z,62.40
2018-06-03T06:13:33.988Z,62.40
2018-06-03T06:16:03.179Z,62.40
2018-06-03T06:18:32.541Z,62.10
2018-06-03T06:21:01.877Z,61.70
2018-06-03T06:23:32.530Z,61.30
2018-06-03T06:26:01.761Z,61.70
2018-06-03T06:28:30.871Z,60.80
2018-06-03T06:30:59.965Z,60.00
2018-06-03T06:33:29.368Z,60.10
2018-06-03T06:35:58.426Z,61.20
2018-06-03T06:38:27.506Z,61.70
2018-06-03T06:40:56.578Z,61.90
2018-06-03T06:43:25.694Z,62.80
2018-06-03T06:45:55.033Z,63.10
2018-06-03T06:48:24.087Z,62.60
2018-06-03T06:50:53.580Z,62.20
2018-06-03T06:53:22.647Z,62.20
2018-06-03T06:55:52.074Z,61.90
2018-06-03T06:58:21.169Z,62.40
2018-06-03T07:00:50.278Z,63.10
2018-06-03T07:03:19.702Z,63.70
2018-06-03T07:05:48.769Z,63.50
2018-06-03T07:08:17.821Z,63.30
2018-06-03T07:10:47.641Z,62.20
2018-06-03T07:13:16.703Z,61.50
2018-06-03T07:15:46.073Z,61.50
2018-06-03T07:18:15.349Z,60.60
2018-06-03T07:20:44.425Z,61.50
2018-06-03T07:23:13.559Z,61.70
2018-06-03T07:25:42.890Z,61.30
2018-06-03T07:28:12.946Z,60.80
2018-06-03T07:30:42.128Z,60.30
2018-06-03T07:33:11.478Z,58.90
2018-06-03T07:35:40.850Z,57.90
2018-06-03T07:38:09.984Z,57.00
2018-06-03T07:40:39.171Z,56.40
2018-06-03T07:43:08.493Z,56.00
2018-06-03T07:45:37.642Z,55.40
2018-06-03T07:48:06.739Z,55.50
2018-06-03T07:50:36.105Z,56.00
2018-06-03T07:53:05.945Z,56.40
2018-06-03T07:55:35.057Z,56.40
2018-06-03T07:58:04.376Z,57.40
2018-06-03T08:00:33.502Z,57.40
2018-06-03T08:03:02.839Z,58.00
2018-06-03T08:05:32.192Z,57.70
2018-06-03T08:08:01.501Z,57.30
2018-06-03T08:10:30.719Z,57.30
2018-06-03T08:13:00.142Z,57.00
2018-06-03T08:15:31.563Z,57.30
2018-06-03T08:18:04.229Z,56.60
2018-06-03T08:20:33.320Z,56.10
2018-06-03T08:23:02.735Z,56.00
2018-06-03T08:25:32.787Z,55.40
2018-06-03T08:28:02.248Z,55.10
2018-06-03T08:30:32.161Z,54.90
2018-06-03T08:33:01.238Z,55.10
2018-06-03T08:35:30.448Z,54.90
2018-06-03T08:37:59.546Z,55.10
2018-06-03T08:40:28.622Z,55.20
2018-06-03T08:45:26.449Z,54.90
2018-06-03T08:47:55.641Z,54.90
2018-06-03T08:50:24.713Z,54.80
2018-06-03T08:52:54.159Z,54.90
2018-06-03T08:55:23.275Z,55.40
2018-06-03T08:57:52.849Z,55.80
2018-06-03T09:00:21.906Z,55.80
2018-06-03T09:02:50.972Z,56.00
2018-06-03T09:05:20.055Z,56.10
2018-06-03T09:07:49.374Z,57.30
2018-06-03T09:10:18.746Z,56.70
2018-06-03T09:12:48.318Z,56.70
2018-06-03T09:15:17.431Z,57.20
2018-06-03T09:17:46.698Z,57.60
2018-06-03T09:20:15.757Z,57.70
2018-06-03T09:22:44.849Z,57.70
2018-06-03T09:25:14.441Z,57.40
2018-06-03T09:27:43.493Z,57.20
2018-06-03T09:30:12.802Z,56.90
2018-06-03T09:32:41.921Z,56.40
2018-06-03T09:35:11.023Z,57.20
2018-06-03T09:37:40.602Z,56.60
2018-06-03T09:40:09.710Z,56.70
2018-06-03T09:42:38.777Z,56.60
2018-06-03T09:45:08.398Z,56.70
2018-06-03T09:47:37.453Z,56.30
2018-06-03T09:50:06.802Z,56.30
2018-06-03T09:52:35.863Z,56.10
2018-06-03T09:55:05.326Z,56.00
2018-06-03T09:57:34.687Z,56.00
2018-06-03T10:00:03.909Z,56.00
2018-06-03T10:02:33.620Z,55.70
2018-06-03T10:05:02.982Z,55.50
2018-06-03T10:07:32.063Z,55.70
2018-06-03T10:10:01.160Z,55.40
2018-06-03T10:12:30.234Z,55.10
2018-06-03T10:15:00.816Z,54.90
2018-06-03T10:17:31.083Z,54.80
2018-06-03T10:20:00.210Z,54.90
2018-06-03T10:22:29.456Z,54.60
2018-06-03T10:24:58.538Z,54.50
2018-06-03T10:27:28.181Z,54.80
2018-06-03T10:29:57.309Z,55.80
2018-06-03T10:32:26.813Z,55.80
2018-06-03T10:34:55.905Z,55.70
2018-06-03T10:37:25.225Z,56.00
2018-06-03T10:39:54.678Z,56.60
2018-06-03T10:42:23.801Z,57.20
2018-06-03T10:44:53.562Z,57.60
2018-06-03T10:47:22.732Z,57.40
2018-06-03T10:49:52.125Z,57.00
2018-06-03T10:52:21.432Z,56.60
2018-06-03T10:54:54.451Z,56.00
2018-06-03T10:57:23.597Z,56.10
2018-06-03T10:59:52.757Z,56.60
2018-06-03T11:02:22.122Z,56.40
2018-06-03T11:04:51.246Z,56.10
2018-06-03T11:07:20.302Z,55.80
2018-06-03T11:09:49.485Z,55.20
2018-06-03T11:12:18.606Z,54.50
2018-06-03T11:14:47.663Z,53.80
2018-06-03T11:17:17.126Z,53.50
2018-06-03T11:19:46.606Z,53.20
2018-06-03T11:22:16.669Z,52.90
2018-06-03T11:24:46.346Z,52.90
2018-06-03T11:27:15.752Z,52.90
2018-06-03T11:29:45.584Z,52.70
2018-06-03T11:32:15.115Z,52.10
2018-06-03T11:34:44.353Z,51.50
2018-06-03T11:37:13.425Z,50.90
2018-06-03T11:39:42.973Z,50.50
2018-06-03T11:42:12.749Z,50.40
2018-06-03T11:44:42.082Z,50.40
2018-06-03T11:47:11.521Z,50.20
2018-06-03T11:49:40.642Z,50.70
2018-06-03T11:52:09.995Z,50.50
2018-06-03T11:54:39.190Z,50.40
2018-06-03T11:57:11.472Z,50.40
2018-06-03T11:59:47.388Z,50.50
2018-06-03T12:02:21.605Z,50.40
2018-06-03T12:04:50.938Z,50.20
2018-06-03T12:07:24.872Z,50.40
2018-06-03T12:09:55.666Z,50.80
2018-06-03T12:12:26.218Z,50.80
2018-06-03T12:14:55.662Z,50.50
2018-06-03T12:17:24.778Z,50.40
2018-06-03T12:19:53.878Z,50.90
2018-06-03T12:22:23.540Z,51.50
2018-06-03T12:24:52.625Z,51.50
2018-06-03T12:27:22.465Z,51.40
2018-06-03T12:29:52.038Z,50.90
2018-06-03T12:32:22.119Z,51.40
2018-06-03T12:34:51.872Z,51.70
2018-06-03T12:37:21.179Z,51.80
2018-06-03T12:39:50.950Z,51.70
2018-06-03T12:42:20.293Z,51.50
2018-06-03T12:44:49.944Z,51.50
2018-06-03T12:47:19.088Z,51.50
2018-06-03T12:49:48.144Z,51.40
2018-06-03T12:52:17.224Z,50.90
2018-06-03T12:54:46.337Z,50.40
2018-06-03T12:57:15.769Z,50.20
2018-06-03T12:59:44.821Z,50.10
2018-06-03T13:02:13.925Z,49.90
2018-06-03T13:04:43.143Z,49.60
2018-06-03T13:07:12.239Z,49.30
2018-06-03T13:09:41.569Z,49.20
2018-06-03T13:12:10.689Z,48.60
2018-06-03T13:14:39.921Z,48.10
2018-06-03T13:17:09.762Z,47.40
2018-06-03T13:19:39.152Z,47.10
2018-06-03T13:22:08.345Z,47.10
2018-06-03T13:24:37.745Z,47.30
2018-06-03T13:27:06.822Z,47.10
2018-06-03T13:29:35.871Z,46.80
2018-06-03T13:32:05.423Z,46.20
2018-06-03T13:34:34.484Z,46.10
2018-06-03T13:37:07.115Z,45.90
2018-06-03T13:39:36.282Z,45.60
2018-06-03T13:42:07.541Z,45.30
2018-06-03T13:44:36.872Z,45.00
2018-06-03T13:47:05.994Z,45.00
2018-06-03T13:49:35.119Z,44.90
2018-06-03T13:52:04.184Z,44.40
2018-06-03T13:54:33.510Z,44.30
2018-06-03T13:57:02.919Z,44.40
2018-06-03T13:59:32.592Z,44.60
2018-06-03T14:02:01.668Z,44.70
2018-06-03T14:04:31.344Z,45.00
2018-06-03T14:07:00.438Z,45.00
2018-06-03T14:09:29.839Z,45.20
2018-06-03T14:11:59.870Z,45.20
2018-06-03T14:14:29.130Z,44.70
2018-06-03T14:16:58.217Z,44.40
2018-06-03T14:19:27.746Z,44.40
2018-06-03T14:21:57.427Z,43.90
2018-06-03T14:24:26.537Z,44.30
2018-06-03T14:26:55.630Z,44.30
2018-06-03T14:29:24.753Z,44.40
2018-06-03T14:31:53.804Z,44.30
2018-06-03T14:34:23.285Z,44.10
2018-06-03T14:36:52.660Z,43.90
2018-06-03T14:39:22.175Z,43.90
2018-06-03T14:41:51.253Z,43.70
2018-06-03T14:44:20.642Z,43.60
2018-06-03T14:46:49.772Z,43.60
2018-06-03T14:49:19.100Z,43.40
2018-06-03T14:51:48.194Z,43.10
2018-06-03T14:54:17.228Z,43.40
2018-06-03T14:56:46.325Z,43.40
2018-06-03T14:59:15.622Z,43.30
2018-06-03T15:01:44.961Z,43.00
2018-06-03T15:04:14.081Z,42.80
2018-06-03T15:06:43.469Z,42.80
2018-06-03T15:09:12.592Z,43.00
2018-06-03T15:11:41.650Z,43.10
2018-06-03T15:14:11.219Z,43.40
2018-06-03T15:16:40.726Z,43.00
2018-06-03T15:19:10.080Z,42.50
2018-06-03T15:21:39.130Z,42.20
2018-06-03T15:24:08.466Z,42.40
2018-06-03T15:26:37.887Z,41.90
2018-06-03T15:29:07.511Z,42.20
2018-06-03T15:31:36.643Z,41.90
2018-06-03T15:34:05.681Z,41.90
2018-06-03T15:36:34.746Z,42.20
2018-06-03T15:39:06.309Z,43.00
2018-06-03T15:41:35.651Z,42.50
2018-06-03T15:44:05.072Z,41.90
2018-06-03T15:46:34.158Z,42.20
2018-06-03T15:49:03.568Z,42.10
2018-06-03T15:51:32.655Z,42.40
2018-06-03T15:54:01.745Z,42.50
2018-06-03T15:56:30.940Z,42.50
2018-06-03T15:59:00.120Z,42.50
2018-06-03T16:01:29.253Z,44.10
2018-06-03T16:03:58.489Z,44.70
2018-06-03T16:06:27.567Z,44.70
2018-06-03T16:08:56.704Z,45.00
2018-06-03T16:11:25.790Z,45.20
2018-06-03T16:13:54.953Z,45.60
2018-06-03T16:16:24.092Z,45.80
2018-06-03T16:18:53.150Z,45.90
2018-06-03T16:21:22.443Z,45.50
2018-06-03T16:23:51.521Z,45.60
2018-06-03T16:26:20.602Z,45.20
2018-06-03T16:28:49.686Z,45.20
2018-06-03T16:31:18.827Z,45.00
2018-06-03T16:33:47.929Z,45.20
2018-06-03T16:36:17.121Z,45.30
2018-06-03T16:38:46.282Z,45.50
2018-06-03T16:41:16.533Z,45.60
2018-06-03T16:43:46.082Z,45.60
2018-06-03T16:46:15.189Z,45.60
2018-06-03T16:48:44.529Z,45.50
2018-06-03T16:51:13.622Z,44.90
2018-06-03T16:53:43.057Z,44.40
2018-06-03T16:56:12.109Z,44.60
2018-06-03T16:58:41.474Z,44.90
2018-06-03T17:01:10.776Z,45.20
2018-06-03T17:03:39.887Z,45.20
2018-06-03T17:08:37.717Z,45.00
2018-06-03T17:11:06.790Z,45.00
2018-06-03T17:13:35.883Z,44.90
2018-06-03T17:16:05.045Z,45.20
2018-06-03T17:18:34.134Z,45.50
2018-06-03T17:21:03.379Z,45.80
2018-06-03T17:23:32.528Z,46.40
2018-06-03T17:26:01.651Z,46.70
2018-06-03T17:28:30.741Z,46.80
2018-06-03T17:30:59.853Z,46.80
2018-06-03T17:33:28.934Z,46.80
2018-06-03T17:35:58.011Z,46.80
2018-06-03T17:38:27.118Z,47.10
2018-06-03T17:40:56.313Z,47.00
2018-06-03T17:43:26.085Z,47.30
2018-06-03T17:45:56.011Z,47.40
2018-06-03T17:48:27.179Z,47.80
2018-06-03T17:50:57.573Z,48.00
2018-06-03T17:53:27.789Z,47.70
2018-06-03T17:55:57.009Z,48.60
2018-06-03T17:58:26.431Z,48.70
2018-06-03T18:00:55.815Z,49.60
2018-06-03T18:03:24.945Z,50.20
2018-06-03T18:05:54.057Z,50.90
2018-06-03T18:08:23.339Z,51.10
2018-06-03T18:10:52.450Z,51.80
2018-06-03T18:13:21.882Z,52.00
2018-06-03T18:15:50.973Z,52.30
2018-06-03T18:18:20.075Z,52.70
2018-06-03T18:20:49.449Z,52.70
2018-06-03T18:23:18.846Z,53.00
2018-06-03T18:25:48.022Z,53.00
2018-06-03T18:28:17.133Z,52.70
2018-06-03T18:30:46.208Z,52.70
2018-06-03T18:33:15.475Z,53.20
2018-06-03T18:35:45.491Z,53.90
2018-06-03T18:38:14.590Z,53.60
2018-06-03T18:40:43.682Z,53.60
2018-06-03T18:43:13.093Z,53.30
2018-06-03T18:45:42.185Z,53.50
2018-06-03T18:48:11.496Z,53.60
2018-06-03T18:50:41.498Z,54.10
2018-06-03T18:53:10.643Z,54.10
2018-06-03T18:55:39.697Z,54.20
2018-06-03T18:58:08.822Z,54.30
2018-06-03T19:00:37.882Z,54.60
2018-06-03T19:03:06.971Z,55.10
2018-06-03T19:05:36.377Z,55.20
2018-06-03T19:08:05.487Z,55.40
2018-06-03T19:10:34.850Z,55.50
2018-06-03T19:13:04.024Z,55.70
2018-06-03T19:15:33.360Z,55.80
2018-06-03T19:18:02.521Z,55.50
2018-06-03T19:20:31.593Z,55.20
2018-06-03T19:23:00.716Z,55.40
2018-06-03T19:25:31.158Z,55.80
2018-06-03T19:28:00.254Z,55.80
2018-06-03T19:30:29.375Z,56.00
2018-06-03T19:32:58.583Z,56.40
2018-06-03T19:35:27.884Z,56.40
2018-06-03T19:37:57.336Z,56.70
2018-06-03T19:40:26.477Z,56.90
2018-06-03T19:42:56.257Z,57.00
2018-06-03T19:45:26.659Z,57.20
2018-06-03T19:50:24.478Z,57.30
2018-06-03T19:52:55.000Z,57.60
2018-06-03T19:55:24.338Z,58.00
2018-06-03T19:57:53.506Z,58.00
2018-06-03T20:00:22.651Z,58.00
2018-06-03T20:02:51.805Z,57.90
2018-06-03T20:05:21.044Z,57.90
2018-06-03T20:07:51.502Z,57.40
2018-06-03T20:10:20.629Z,57.40
2018-06-03T20:12:49.861Z,57.20
2018-06-03T20:15:19.091Z,57.20
2018-06-03T20:17:52.437Z,57.30
2018-06-03T20:20:22.174Z,57.70
2018-06-03T20:22:51.334Z,57.90
2018-06-03T20:25:20.476Z,57.40
2018-06-03T20:27:49.680Z,57.20
2018-06-03T20:30:18.749Z,56.70
2018-06-03T20:32:47.860Z,56.60
2018-06-03T20:35:17.000Z,56.10
2018-06-03T20:37:46.109Z,55.80
2018-06-03T20:40:15.401Z,55.50
2018-06-03T20:42:44.656Z,55.20
2018-06-03T20:45:13.734Z,55.10
2018-06-03T20:47:42.832Z,55.10
2018-06-03T20:50:12.242Z,55.10
2018-06-03T20:52:41.352Z,55.20
2018-06-03T20:55:11.108Z,55.10
2018-06-03T20:57:40.463Z,55.20
2018-06-03T21:00:09.821Z,55.80
2018-06-03T21:02:39.046Z,56.30
2018-06-03T21:05:08.258Z,57.00
2018-06-03T21:07:37.365Z,57.60
2018-06-03T21:10:06.459Z,58.20
2018-06-03T21:12:36.215Z,58.80
2018-06-03T21:15:05.378Z,58.60
2018-06-03T21:17:34.528Z,58.30
2018-06-03T21:20:04.969Z,57.70
2018-06-03T21:22:34.149Z,57.70
2018-06-03T21:25:03.215Z,57.20
2018-06-03T21:27:32.373Z,57.30
2018-06-03T21:30:01.477Z,57.20
2018-06-03T21:32:30.646Z,56.70
2018-06-03T21:34:59.806Z,56.90
2018-06-03T21:37:28.907Z,58.00
2018-06-03T21:39:58.068Z,59.10
2018-06-03T21:42:27.858Z,59.40
2018-06-03T21:44:56.930Z,59.50
2018-06-03T21:47:26.029Z,60.10
2018-06-03T21:49:55.462Z,59.80
2018-06-03T21:52:24.522Z,59.50
2018-06-03T21:54:53.630Z,59.10
2018-06-03T21:57:23.665Z,58.80
2018-06-03T21:59:53.489Z,58.30
2018-06-03T22:02:24.051Z,58.20
2018-06-03T22:04:53.214Z,58.50
2018-06-03T22:07:22.536Z,58.60
2018-06-03T22:09:51.598Z,59.10
2018-06-03T22:12:20.702Z,59.10
2018-06-03T22:14:49.806Z,58.90
2018-06-03T22:17:18.923Z,58.90
2018-06-03T22:19:48.677Z,59.40
2018-06-03T22:22:17.768Z,61.50
2018-06-03T22:24:46.898Z,63.30
2018-06-03T22:27:16.427Z,63.50
2018-06-03T22:29:45.847Z,64.20
2018-06-03T22:32:14.941Z,65.10
2018-06-03T22:34:44.011Z,64.90
2018-06-03T22:37:13.095Z,65.80
2018-06-03T22:39:42.191Z,66.70
2018-06-03T22:42:11.936Z,66.70
2018-06-03T22:44:41.513Z,67.40
2018-06-03T22:47:10.896Z,67.30
2018-06-03T22:49:39.973Z,68.50
2018-06-03T22:52:09.050Z,68.20
2018-06-03T22:54:38.114Z,67.80
2018-06-03T22:58:14.858Z,68.00
2018-06-03T23:00:43.923Z,67.80
2018-06-03T23:03:15.564Z,68.50
2018-06-03T23:05:44.962Z,69.10
2018-06-03T23:08:14.041Z,69.60
2018-06-03T23:10:43.135Z,70.00
2018-06-03T23:13:12.473Z,69.60
2018-06-03T23:18:11.435Z,68.20
2018-06-03T23:20:40.501Z,68.20
2018-06-03T23:23:09.602Z,68.20
2018-06-03T23:25:38.803Z,68.20
2018-06-03T23:28:11.330Z,67.80
2018-06-03T23:30:40.413Z,67.80
2018-06-03T23:33:09.501Z,68.90
2018-06-03T23:35:38.565Z,68.70
2018-06-03T23:38:07.664Z,68.90
2018-06-03T23:40:36.728Z,68.30
2018-06-03T23:43:05.833Z,69.10
2018-06-03T23:45:34.929Z,69.40
2018-06-03T23:48:04.293Z,69.80
2018-06-03T23:50:33.641Z,70.10
2018-06-03T23:53:02.745Z,70.50
2018-06-03T23:55:31.781Z,70.30
2018-06-03T23:58:00.831Z,69.60
